Alleene, Arkansas
Current Conditions -  °F | °C
As of 8:38 AM on Saturday 25 Oct 2014 (Local Time) from KDEQ Reporting Station
Haze Haze  
Wind Chill: 13°   Ceiling: Unl
Heat Index: 13°   Visibility: 1.2mi
Dew Point: 13°   Wind: 0mph
Humidity: 100%   Direction: NA
Pressure: 30.14"   Gusts: NA
Location:  33.77°N, 94.26°W
Report Text: KDEQ 251338Z AUTO 00000KT 1 1/4SM BR FEW003 13/13 A3014 RMK AO2 T01330133
Loading
Personal Weather Stations






























Interactive Weather Map
Tropical Storm Tracking
New forecast layout! Learn more

10-Day Weather Forecast

Advertisements
Track Severe Weather on mobile